createdAt,value
2023-05-19T00:02:01.237Z,70.27
2023-05-19T00:07:08.279Z,70.25
2023-05-19T00:12:12.600Z,69.55
2023-05-19T00:17:16.909Z,70.40
2023-05-19T00:22:21.344Z,70.31
2023-05-19T00:27:24.260Z,70.49
2023-05-19T00:32:27.367Z,70.37
2023-05-19T00:37:31.758Z,70.39
2023-05-19T00:42:34.920Z,71.10
2023-05-19T00:47:37.914Z,71.40
2023-05-19T00:52:42.349Z,71.97
2023-05-19T00:57:46.063Z,72.82
2023-05-19T01:02:50.317Z,72.99
2023-05-19T01:07:56.481Z,72.83
2023-05-19T01:12:59.634Z,72.89
2023-05-19T01:18:11.226Z,72.93
2023-05-19T01:23:29.375Z,73.07
2023-05-19T01:28:59.670Z,73.70
2023-05-19T01:34:05.686Z,73.98
2023-05-19T01:39:09.046Z,75.06
2023-05-19T01:44:13.247Z,75.63
2023-05-19T01:49:17.583Z,75.69
2023-05-19T01:54:21.114Z,76.73
2023-05-19T01:59:44.013Z,76.30
2023-05-19T02:04:57.149Z,76.55
2023-05-19T02:10:05.752Z,77.46
2023-05-19T02:15:15.111Z,78.28
2023-05-19T02:20:22.128Z,78.00
2023-05-19T02:25:25.362Z,78.63
2023-05-19T02:30:28.320Z,78.44
2023-05-19T02:35:33.907Z,79.48
2023-05-19T02:40:36.969Z,79.73
2023-05-19T02:45:39.998Z,80.56
2023-05-19T02:50:44.360Z,81.15
2023-05-19T02:55:47.312Z,81.08
2023-05-19T03:00:51.481Z,81.77
2023-05-19T03:05:55.791Z,82.24
2023-05-19T03:10:58.708Z,82.10
2023-05-19T03:16:02.133Z,81.73
2023-05-19T03:21:06.749Z,81.88
2023-05-19T03:26:09.681Z,82.32
2023-05-19T03:31:12.848Z,81.26
2023-05-19T03:36:17.598Z,83.11
2023-05-19T03:41:21.161Z,83.79
2023-05-19T03:46:24.575Z,82.95
2023-05-19T03:51:47.527Z,83.24
2023-05-19T03:57:10.219Z,84.16
2023-05-19T04:02:13.190Z,84.69
2023-05-19T04:07:17.489Z,84.23
2023-05-19T04:12:20.443Z,84.03
2023-05-19T04:17:26.438Z,83.60
2023-05-19T04:22:32.036Z,85.75
2023-05-19T04:27:36.654Z,83.99
2023-05-19T04:32:41.455Z,84.10
2023-05-19T04:37:46.764Z,83.11
2023-05-19T04:42:52.319Z,82.92
2023-05-19T04:47:58.001Z,83.22
2023-05-19T04:53:02.517Z,81.55
2023-05-19T04:58:06.390Z,80.11
2023-05-19T05:03:09.824Z,78.59
2023-05-19T05:08:16.212Z,77.79
2023-05-19T05:13:20.154Z,76.80
2023-05-19T05:18:25.485Z,74.17
2023-05-19T05:23:30.949Z,75.55
2023-05-19T05:28:34.778Z,76.22
2023-05-19T05:33:39.680Z,76.59
2023-05-19T05:38:44.684Z,77.37
2023-05-19T05:43:49.021Z,76.96
2023-05-19T05:48:52.708Z,75.17
2023-05-19T05:53:58.629Z,76.59
2023-05-19T05:59:08.383Z,73.72
2023-05-19T06:04:11.450Z,72.12
2023-05-19T06:09:16.317Z,72.21
2023-05-19T06:14:20.006Z,73.11
2023-05-19T06:19:48.066Z,70.58
2023-05-19T06:24:54.073Z,69.26
2023-05-19T06:29:56.971Z,64.02
2023-05-19T06:35:01.690Z,59.84
2023-05-19T06:40:07.102Z,59.68
2023-05-19T06:45:11.824Z,62.14
2023-05-19T06:50:16.419Z,62.83
2023-05-19T06:55:21.482Z,61.73
2023-05-19T07:00:25.955Z,62.99
2023-05-19T07:05:29.709Z,67.12
2023-05-19T07:10:36.134Z,65.07
2023-05-19T07:15:44.142Z,66.57
2023-05-19T07:20:47.248Z,65.22
2023-05-19T07:25:56.125Z,62.47
2023-05-19T07:30:59.221Z,61.64
2023-05-19T07:36:02.417Z,64.99
2023-05-19T07:41:07.016Z,59.95
2023-05-19T07:46:10.047Z,57.17
2023-05-19T07:51:13.741Z,59.33
2023-05-19T07:56:18.051Z,59.19
2023-05-19T08:01:21.005Z,54.14
2023-05-19T08:06:25.272Z,53.41
2023-05-19T08:11:29.640Z,55.42
2023-05-19T08:16:32.623Z,53.33
2023-05-19T08:21:35.683Z,52.50
2023-05-19T08:26:40.276Z,54.58
2023-05-19T08:31:43.313Z,54.60
2023-05-19T08:36:47.672Z,52.79
2023-05-19T08:41:52.057Z,50.44
2023-05-19T08:46:56.608Z,46.94
2023-05-19T08:52:07.399Z,47.13
2023-05-19T08:57:12.427Z,50.22
2023-05-19T09:02:15.627Z,48.25
2023-05-19T09:07:19.909Z,47.68
2023-05-19T09:12:24.307Z,49.69
2023-05-19T09:17:27.357Z,49.48
2023-05-19T09:22:30.665Z,54.34
2023-05-19T09:27:35.363Z,54.52
2023-05-19T09:32:38.351Z,54.60
2023-05-19T09:37:41.845Z,50.76
2023-05-19T09:42:46.243Z,48.91
2023-05-19T09:47:49.274Z,50.12
2023-05-19T09:52:53.306Z,47.36
2023-05-19T09:57:57.703Z,51.00
2023-05-19T10:03:02.041Z,48.09
2023-05-19T10:08:07.263Z,50.03
2023-05-19T10:13:13.215Z,51.17
2023-05-19T10:18:18.770Z,49.76
2023-05-19T10:23:22.319Z,52.27
2023-05-19T10:28:33.189Z,49.99
2023-05-19T10:34:02.214Z,51.38
2023-05-19T10:39:07.660Z,50.92
2023-05-19T10:44:22.042Z,51.77
2023-05-19T10:49:25.842Z,52.36
2023-05-19T10:54:43.510Z,54.03
2023-05-19T10:59:49.877Z,54.43
2023-05-19T11:04:53.596Z,53.27
2023-05-19T11:09:56.685Z,55.19
2023-05-19T11:15:01.086Z,54.53
2023-05-19T11:20:04.979Z,52.51
2023-05-19T11:25:09.825Z,50.61
2023-05-19T11:30:17.812Z,53.05
2023-05-19T11:35:21.441Z,51.10
2023-05-19T11:40:24.519Z,52.00
2023-05-19T11:45:30.277Z,50.64
2023-05-19T11:50:33.820Z,51.56
2023-05-19T11:55:36.860Z,53.32
2023-05-19T12:00:42.546Z,53.08
2023-05-19T12:05:47.870Z,52.67
2023-05-19T12:10:51.627Z,49.59
2023-05-19T12:16:00.886Z,50.14
2023-05-19T12:21:04.331Z,53.37
2023-05-19T12:26:07.433Z,54.80
2023-05-19T12:31:12.815Z,53.55
2023-05-19T12:36:17.092Z,52.21
2023-05-19T12:41:20.168Z,55.19
2023-05-19T12:46:24.633Z,54.64
2023-05-19T12:51:28.351Z,54.88
2023-05-19T12:56:31.353Z,52.05
2023-05-19T13:01:37.616Z,55.17
2023-05-19T13:06:41.865Z,52.97
2023-05-19T13:11:45.023Z,54.28
2023-05-19T13:16:49.522Z,53.78
2023-05-19T13:21:52.449Z,55.53
2023-05-19T13:26:56.113Z,57.25
2023-05-19T13:32:01.566Z,56.12
2023-05-19T13:37:04.730Z,57.44
2023-05-19T13:42:07.780Z,57.69
2023-05-19T13:47:12.192Z,57.49
2023-05-19T13:52:15.163Z,57.51
2023-05-19T13:57:18.518Z,55.92
2023-05-19T14:02:22.917Z,55.71
2023-05-19T14:07:27.204Z,57.00
2023-05-19T14:12:43.108Z,57.18
2023-05-19T14:17:55.067Z,59.97
2023-05-19T14:22:58.087Z,59.32
2023-05-19T14:28:01.225Z,61.31
2023-05-19T14:33:08.006Z,59.61
2023-05-19T14:38:10.974Z,59.49
2023-05-19T14:43:13.886Z,61.25
2023-05-19T14:48:18.354Z,60.18
2023-05-19T14:53:21.388Z,61.22
2023-05-19T14:58:28.905Z,60.36
2023-05-19T15:03:33.740Z,59.88
2023-05-19T15:08:37.825Z,58.88
2023-05-19T15:13:40.988Z,60.58
2023-05-19T15:18:45.498Z,62.37
2023-05-19T15:23:48.535Z,62.44
2023-05-19T15:28:53.426Z,61.42
2023-05-19T15:33:57.711Z,62.81
2023-05-19T15:39:00.675Z,63.48
2023-05-19T15:44:03.628Z,63.90
2023-05-19T15:49:07.960Z,63.12
2023-05-19T15:54:11.068Z,64.29
2023-05-19T15:59:14.085Z,64.86
2023-05-19T16:04:18.477Z,65.30
2023-05-19T16:09:21.555Z,65.05
2023-05-19T16:14:24.562Z,67.53
2023-05-19T16:19:28.893Z,69.44
2023-05-19T16:24:31.824Z,68.88
2023-05-19T16:29:34.818Z,68.50
2023-05-19T16:34:39.144Z,68.36
2023-05-19T16:39:43.769Z,69.93
2023-05-19T16:44:46.729Z,69.38
2023-05-19T16:49:51.232Z,68.93
2023-05-19T16:54:54.145Z,70.04
2023-05-19T16:59:57.158Z,70.55
2023-05-19T17:05:01.430Z,70.43
2023-05-19T17:10:04.533Z,69.94
2023-05-19T17:15:08.585Z,68.80
2023-05-19T17:20:14.365Z,70.79
2023-05-19T17:25:17.529Z,71.18
2023-05-19T17:30:20.601Z,71.73
2023-05-19T17:35:26.378Z,72.15
2023-05-19T17:40:31.125Z,72.66
2023-05-19T17:45:34.188Z,72.75
2023-05-19T17:50:38.875Z,73.05
2023-05-19T17:55:42.544Z,73.08
2023-05-19T18:00:46.195Z,72.95
2023-05-19T18:05:51.480Z,72.67
2023-05-19T18:10:56.735Z,73.15
2023-05-19T18:15:59.833Z,72.44
2023-05-19T18:21:04.377Z,72.96
2023-05-19T18:26:07.317Z,73.38
2023-05-19T18:31:15.787Z,73.32
2023-05-19T18:36:20.190Z,74.44
2023-05-19T18:41:23.164Z,75.02
2023-05-19T18:46:26.351Z,75.69
2023-05-19T18:51:31.448Z,76.06
2023-05-19T18:56:34.447Z,76.01
2023-05-19T19:01:37.688Z,75.39
2023-05-19T19:06:43.829Z,75.63
2023-05-19T19:11:46.964Z,75.90
2023-05-19T19:16:49.953Z,76.15
2023-05-19T19:21:54.294Z,76.23
2023-05-19T19:26:57.225Z,76.23
2023-05-19T19:32:00.497Z,77.42
2023-05-19T19:37:05.200Z,78.35
2023-05-19T19:42:08.224Z,77.93
2023-05-19T19:47:11.828Z,79.32
2023-05-19T19:52:16.225Z,80.24
2023-05-19T19:57:19.177Z,79.63
2023-05-19T20:02:22.138Z,79.51
2023-05-19T20:07:26.464Z,79.40
2023-05-19T20:12:30.157Z,80.83
2023-05-19T20:17:33.112Z,80.33
2023-05-19T20:22:37.691Z,80.54
2023-05-19T20:27:40.711Z,80.80
2023-05-19T20:32:43.829Z,81.64
2023-05-19T20:37:49.329Z,81.13
2023-05-19T20:42:52.825Z,81.69
2023-05-19T20:47:56.234Z,81.71
2023-05-19T20:53:01.871Z,80.54
2023-05-19T20:58:04.829Z,81.27
2023-05-19T21:03:07.978Z,81.38
2023-05-19T21:08:12.861Z,83.15
2023-05-19T21:13:15.936Z,82.16
2023-05-19T21:18:18.889Z,82.41
2023-05-19T21:23:23.180Z,82.63
2023-05-19T21:28:26.066Z,82.87
2023-05-19T21:33:28.979Z,83.31
2023-05-19T21:38:33.292Z,83.21
2023-05-19T21:43:36.223Z,83.26
2023-05-19T21:48:39.160Z,83.09
2023-05-19T21:53:43.450Z,82.28
2023-05-19T21:58:46.386Z,83.66
2023-05-19T22:03:49.902Z,83.86
2023-05-19T22:08:54.278Z,82.96
2023-05-19T22:13:57.174Z,83.66
2023-05-19T22:19:00.243Z,83.99
2023-05-19T22:24:04.922Z,84.07
2023-05-19T22:29:07.863Z,84.08
2023-05-19T22:34:12.650Z,84.36
2023-05-19T22:39:17.037Z,84.40
2023-05-19T22:44:20.324Z,84.62
2023-05-19T22:49:23.352Z,85.55
2023-05-19T22:54:27.642Z,85.35
2023-05-19T22:59:30.747Z,85.51
2023-05-19T23:04:34.281Z,85.89
2023-05-19T23:09:38.585Z,85.59
2023-05-19T23:14:41.586Z,84.49
2023-05-19T23:19:44.456Z,86.38
2023-05-19T23:24:48.712Z,86.71
2023-05-19T23:29:52.278Z,85.71
2023-05-19T23:34:55.291Z,85.73
2023-05-19T23:39:59.621Z,86.67
2023-05-19T23:45:02.527Z,87.64
2023-05-19T23:50:05.984Z,87.51
2023-05-19T23:55:12.692Z,87.57
